sensor_id;sensor_type;location;lat;lon;timestamp;P1;durP1;ratioP1;P2;durP2;ratioP2
35026;SDS011;60696;51.426;6.934;2023-01-08T00:02:15;0.63;;;0.60;;
35026;SDS011;60696;51.426;6.934;2023-01-08T00:04:41;1.38;;;0.80;;
35026;SDS011;60696;51.426;6.934;2023-01-08T00:07:07;1.33;;;0.60;;
35026;SDS011;60696;51.426;6.934;2023-01-08T00:09:32;0.82;;;0.73;;
35026;SDS011;60696;51.426;6.934;2023-01-08T00:11:58;1.20;;;0.90;;
35026;SDS011;60696;51.426;6.934;2023-01-08T00:14:23;1.17;;;0.90;;
35026;SDS011;60696;51.426;6.934;2023-01-08T00:16:49;1.83;;;1.20;;
35026;SDS011;60696;51.426;6.934;2023-01-08T00:19:15;0.95;;;0.68;;
35026;SDS011;60696;51.426;6.934;2023-01-08T00:21:41;1.00;;;0.57;;
35026;SDS011;60696;51.426;6.934;2023-01-08T00:24:07;1.30;;;0.90;;
35026;SDS011;60696;51.426;6.934;2023-01-08T00:26:33;1.05;;;0.70;;
35026;SDS011;60696;51.426;6.934;2023-01-08T00:28:58;1.15;;;0.85;;
35026;SDS011;60696;51.426;6.934;2023-01-08T00:31:24;1.13;;;0.70;;
35026;SDS011;60696;51.426;6.934;2023-01-08T00:33:49;1.75;;;0.90;;
35026;SDS011;60696;51.426;6.934;2023-01-08T00:36:16;1.77;;;1.17;;
35026;SDS011;60696;51.426;6.934;2023-01-08T00:38:43;0.98;;;0.80;;
35026;SDS011;60696;51.426;6.934;2023-01-08T00:41:09;2.20;;;0.93;;
35026;SDS011;60696;51.426;6.934;2023-01-08T00:43:36;1.02;;;0.70;;
35026;SDS011;60696;51.426;6.934;2023-01-08T00:46:02;3.13;;;0.90;;
35026;SDS011;60696;51.426;6.934;2023-01-08T00:48:28;1.27;;;0.70;;
35026;SDS011;60696;51.426;6.934;2023-01-08T00:50:55;1.58;;;0.88;;
35026;SDS011;60696;51.426;6.934;2023-01-08T00:53:20;1.00;;;0.90;;
35026;SDS011;60696;51.426;6.934;2023-01-08T00:55:46;1.92;;;1.10;;
35026;SDS011;60696;51.426;6.934;2023-01-08T00:58:12;1.33;;;1.00;;
35026;SDS011;60696;51.426;6.934;2023-01-08T01:00:38;3.83;;;1.10;;
35026;SDS011;60696;51.426;6.934;2023-01-08T01:03:04;2.15;;;1.42;;
35026;SDS011;60696;51.426;6.934;2023-01-08T01:05:30;2.85;;;0.90;;
35026;SDS011;60696;51.426;6.934;2023-01-08T01:07:55;1.27;;;0.85;;
35026;SDS011;60696;51.426;6.934;2023-01-08T01:10:22;2.08;;;1.10;;
35026;SDS011;60696;51.426;6.934;2023-01-08T01:12:48;1.88;;;0.77;;
35026;SDS011;60696;51.426;6.934;2023-01-08T01:15:14;1.40;;;0.90;;
35026;SDS011;60696;51.426;6.934;2023-01-08T01:17:42;2.45;;;1.13;;
35026;SDS011;60696;51.426;6.934;2023-01-08T01:20:10;1.55;;;1.17;;
35026;SDS011;60696;51.426;6.934;2023-01-08T01:22:37;2.03;;;0.80;;
35026;SDS011;60696;51.426;6.934;2023-01-08T01:25:03;1.67;;;1.35;;
35026;SDS011;60696;51.426;6.934;2023-01-08T01:27:29;1.88;;;0.98;;
35026;SDS011;60696;51.426;6.934;2023-01-08T01:29:55;1.40;;;0.85;;
35026;SDS011;60696;51.426;6.934;2023-01-08T01:32:20;1.10;;;0.75;;
35026;SDS011;60696;51.426;6.934;2023-01-08T01:34:46;2.08;;;1.13;;
35026;SDS011;60696;51.426;6.934;2023-01-08T01:37:12;1.90;;;0.80;;
35026;SDS011;60696;51.426;6.934;2023-01-08T01:39:38;1.30;;;0.80;;
35026;SDS011;60696;51.426;6.934;2023-01-08T01:42:05;1.50;;;1.10;;
35026;SDS011;60696;51.426;6.934;2023-01-08T01:44:35;1.75;;;1.10;;
35026;SDS011;60696;51.426;6.934;2023-01-08T01:47:22;1.80;;;1.00;;
35026;SDS011;60696;51.426;6.934;2023-01-08T01:52:27;2.10;;;0.90;;
35026;SDS011;60696;51.426;6.934;2023-01-08T01:54:56;1.13;;;0.90;;
35026;SDS011;60696;51.426;6.934;2023-01-08T01:57:25;1.42;;;0.90;;
35026;SDS011;60696;51.426;6.934;2023-01-08T01:59:52;1.35;;;1.02;;
35026;SDS011;60696;51.426;6.934;2023-01-08T02:02:19;2.85;;;0.93;;
35026;SDS011;60696;51.426;6.934;2023-01-08T02:04:44;3.88;;;0.85;;
35026;SDS011;60696;51.426;6.934;2023-01-08T02:07:12;1.85;;;1.10;;
35026;SDS011;60696;51.426;6.934;2023-01-08T02:10:06;1.65;;;0.85;;
35026;SDS011;60696;51.426;6.934;2023-01-08T02:12:43;1.65;;;1.15;;
35026;SDS011;60696;51.426;6.934;2023-01-08T02:18:03;1.20;;;0.85;;
35026;SDS011;60696;51.426;6.934;2023-01-08T02:20:38;1.10;;;1.00;;
35026;SDS011;60696;51.426;6.934;2023-01-08T02:28:42;1.23;;;0.90;;
35026;SDS011;60696;51.426;6.934;2023-01-08T02:31:16;1.60;;;0.90;;
35026;SDS011;60696;51.426;6.934;2023-01-08T02:33:44;4.55;;;1.80;;
35026;SDS011;60696;51.426;6.934;2023-01-08T02:39:05;1.77;;;0.90;;
35026;SDS011;60696;51.426;6.934;2023-01-08T02:41:56;1.95;;;1.42;;
35026;SDS011;60696;51.426;6.934;2023-01-08T02:44:30;3.03;;;1.13;;
35026;SDS011;60696;51.426;6.934;2023-01-08T02:50:02;8.90;;;1.10;;
35026;SDS011;60696;51.426;6.934;2023-01-08T02:52:35;3.50;;;1.20;;
35026;SDS011;60696;51.426;6.934;2023-01-08T02:55:07;4.18;;;1.50;;
35026;SDS011;60696;51.426;6.934;2023-01-08T02:57:34;3.20;;;1.38;;
35026;SDS011;60696;51.426;6.934;2023-01-08T03:00:00;3.03;;;1.50;;
35026;SDS011;60696;51.426;6.934;2023-01-08T03:02:26;2.15;;;1.15;;
35026;SDS011;60696;51.426;6.934;2023-01-08T03:04:56;2.35;;;1.27;;
35026;SDS011;60696;51.426;6.934;2023-01-08T03:09:52;2.90;;;1.48;;
35026;SDS011;60696;51.426;6.934;2023-01-08T03:12:29;3.28;;;1.20;;
35026;SDS011;60696;51.426;6.934;2023-01-08T03:15:05;2.08;;;1.20;;
35026;SDS011;60696;51.426;6.934;2023-01-08T03:17:34;1.63;;;1.08;;
35026;SDS011;60696;51.426;6.934;2023-01-08T03:20:06;3.97;;;1.40;;
35026;SDS011;60696;51.426;6.934;2023-01-08T03:22:36;4.00;;;1.40;;
35026;SDS011;60696;51.426;6.934;2023-01-08T03:25:04;4.80;;;1.33;;
35026;SDS011;60696;51.426;6.934;2023-01-08T03:27:32;2.20;;;1.10;;
35026;SDS011;60696;51.426;6.934;2023-01-08T03:30:02;2.17;;;1.00;;
35026;SDS011;60696;51.426;6.934;2023-01-08T03:32:29;1.33;;;0.80;;
35026;SDS011;60696;51.426;6.934;2023-01-08T03:34:56;2.38;;;1.05;;
35026;SDS011;60696;51.426;6.934;2023-01-08T03:37:24;1.50;;;0.90;;
35026;SDS011;60696;51.426;6.934;2023-01-08T03:39:55;1.92;;;1.10;;
35026;SDS011;60696;51.426;6.934;2023-01-08T03:42:22;2.40;;;0.95;;
35026;SDS011;60696;51.426;6.934;2023-01-08T03:44:48;1.60;;;1.00;;
35026;SDS011;60696;51.426;6.934;2023-01-08T03:47:15;1.50;;;1.35;;
35026;SDS011;60696;51.426;6.934;2023-01-08T03:49:42;1.85;;;1.10;;
35026;SDS011;60696;51.426;6.934;2023-01-08T03:52:08;1.27;;;1.00;;
35026;SDS011;60696;51.426;6.934;2023-01-08T03:54:44;3.40;;;1.30;;
35026;SDS011;60696;51.426;6.934;2023-01-08T03:57:09;4.35;;;1.35;;
35026;SDS011;60696;51.426;6.934;2023-01-08T03:59:35;1.35;;;0.90;;
35026;SDS011;60696;51.426;6.934;2023-01-08T04:02:00;2.78;;;1.10;;
35026;SDS011;60696;51.426;6.934;2023-01-08T04:04:26;2.05;;;1.02;;
35026;SDS011;60696;51.426;6.934;2023-01-08T04:06:52;1.80;;;1.05;;
35026;SDS011;60696;51.426;6.934;2023-01-08T04:09:17;5.88;;;1.35;;
35026;SDS011;60696;51.426;6.934;2023-01-08T04:11:43;2.25;;;1.10;;
35026;SDS011;60696;51.426;6.934;2023-01-08T04:14:08;1.85;;;1.00;;
35026;SDS011;60696;51.426;6.934;2023-01-08T04:16:36;1.38;;;1.13;;
35026;SDS011;60696;51.426;6.934;2023-01-08T04:19:02;1.70;;;0.90;;
35026;SDS011;60696;51.426;6.934;2023-01-08T04:21:27;2.78;;;1.10;;
35026;SDS011;60696;51.426;6.934;2023-01-08T04:23:53;1.13;;;0.80;;
35026;SDS011;60696;51.426;6.934;2023-01-08T04:26:19;2.30;;;1.10;;
35026;SDS011;60696;51.426;6.934;2023-01-08T04:28:44;2.88;;;0.90;;
35026;SDS011;60696;51.426;6.934;2023-01-08T04:31:10;2.33;;;0.90;;
35026;SDS011;60696;51.426;6.934;2023-01-08T04:33:36;1.20;;;0.82;;
35026;SDS011;60696;51.426;6.934;2023-01-08T04:36:02;1.52;;;0.90;;
35026;SDS011;60696;51.426;6.934;2023-01-08T04:38:28;1.55;;;0.88;;
35026;SDS011;60696;51.426;6.934;2023-01-08T04:40:57;1.40;;;0.98;;
35026;SDS011;60696;51.426;6.934;2023-01-08T04:43:24;2.22;;;1.10;;
35026;SDS011;60696;51.426;6.934;2023-01-08T04:45:50;3.42;;;0.90;;
35026;SDS011;60696;51.426;6.934;2023-01-08T04:48:15;1.48;;;1.10;;
35026;SDS011;60696;51.426;6.934;2023-01-08T04:50:41;1.50;;;0.90;;
35026;SDS011;60696;51.426;6.934;2023-01-08T04:53:07;4.25;;;0.77;;
35026;SDS011;60696;51.426;6.934;2023-01-08T04:55:33;2.35;;;1.00;;
35026;SDS011;60696;51.426;6.934;2023-01-08T04:57:58;2.80;;;1.10;;
35026;SDS011;60696;51.426;6.934;2023-01-08T05:00:24;1.23;;;0.80;;
35026;SDS011;60696;51.426;6.934;2023-01-08T05:02:49;1.65;;;0.80;;
35026;SDS011;60696;51.426;6.934;2023-01-08T05:05:15;1.95;;;1.10;;
35026;SDS011;60696;51.426;6.934;2023-01-08T05:07:41;1.67;;;1.00;;
35026;SDS011;60696;51.426;6.934;2023-01-08T05:10:06;3.65;;;0.90;;
35026;SDS011;60696;51.426;6.934;2023-01-08T05:12:32;1.50;;;0.90;;
35026;SDS011;60696;51.426;6.934;2023-01-08T05:14:58;5.07;;;1.08;;
35026;SDS011;60696;51.426;6.934;2023-01-08T05:17:23;1.60;;;1.02;;
35026;SDS011;60696;51.426;6.934;2023-01-08T05:19:49;2.15;;;1.13;;
35026;SDS011;60696;51.426;6.934;2023-01-08T05:22:14;1.63;;;0.80;;
35026;SDS011;60696;51.426;6.934;2023-01-08T05:24:40;1.60;;;0.80;;
35026;SDS011;60696;51.426;6.934;2023-01-08T05:27:05;1.33;;;0.90;;
35026;SDS011;60696;51.426;6.934;2023-01-08T05:29:31;2.05;;;0.80;;
35026;SDS011;60696;51.426;6.934;2023-01-08T05:31:57;1.63;;;0.90;;
35026;SDS011;60696;51.426;6.934;2023-01-08T05:34:22;1.33;;;0.75;;
35026;SDS011;60696;51.426;6.934;2023-01-08T05:36:48;1.60;;;0.90;;
35026;SDS011;60696;51.426;6.934;2023-01-08T05:39:14;1.17;;;0.90;;
35026;SDS011;60696;51.426;6.934;2023-01-08T05:41:39;1.40;;;1.00;;
35026;SDS011;60696;51.426;6.934;2023-01-08T05:44:05;3.13;;;1.20;;
35026;SDS011;60696;51.426;6.934;2023-01-08T05:46:30;1.20;;;0.75;;
35026;SDS011;60696;51.426;6.934;2023-01-08T05:48:56;3.88;;;0.70;;
35026;SDS011;60696;51.426;6.934;2023-01-08T05:51:22;1.08;;;0.70;;
35026;SDS011;60696;51.426;6.934;2023-01-08T05:53:48;1.83;;;0.82;;
35026;SDS011;60696;51.426;6.934;2023-01-08T05:56:13;1.92;;;0.63;;
35026;SDS011;60696;51.426;6.934;2023-01-08T05:58:39;1.48;;;0.82;;
35026;SDS011;60696;51.426;6.934;2023-01-08T06:01:08;1.67;;;0.75;;
35026;SDS011;60696;51.426;6.934;2023-01-08T06:03:36;0.95;;;0.55;;
35026;SDS011;60696;51.426;6.934;2023-01-08T06:06:02;1.05;;;0.50;;
35026;SDS011;60696;51.426;6.934;2023-01-08T06:08:30;2.25;;;0.75;;
35026;SDS011;60696;51.426;6.934;2023-01-08T06:11:01;2.17;;;0.80;;
35026;SDS011;60696;51.426;6.934;2023-01-08T06:13:28;1.00;;;0.70;;
35026;SDS011;60696;51.426;6.934;2023-01-08T06:15:53;1.35;;;0.73;;
35026;SDS011;60696;51.426;6.934;2023-01-08T06:18:19;0.90;;;0.70;;
35026;SDS011;60696;51.426;6.934;2023-01-08T06:20:45;1.42;;;0.90;;
35026;SDS011;60696;51.426;6.934;2023-01-08T06:23:10;2.25;;;0.90;;
35026;SDS011;60696;51.426;6.934;2023-01-08T06:25:36;1.05;;;0.80;;
35026;SDS011;60696;51.426;6.934;2023-01-08T06:28:02;1.13;;;0.70;;
35026;SDS011;60696;51.426;6.934;2023-01-08T06:30:28;1.00;;;0.75;;
35026;SDS011;60696;51.426;6.934;2023-01-08T06:32:55;1.23;;;0.80;;
35026;SDS011;60696;51.426;6.934;2023-01-08T06:35:21;1.30;;;0.73;;
35026;SDS011;60696;51.426;6.934;2023-01-08T06:37:47;2.78;;;0.98;;
35026;SDS011;60696;51.426;6.934;2023-01-08T06:40:12;1.95;;;0.85;;
35026;SDS011;60696;51.426;6.934;2023-01-08T06:42:38;2.42;;;0.98;;
35026;SDS011;60696;51.426;6.934;2023-01-08T06:45:04;1.55;;;0.57;;
35026;SDS011;60696;51.426;6.934;2023-01-08T06:47:31;1.13;;;0.70;;
35026;SDS011;60696;51.426;6.934;2023-01-08T06:49:57;1.17;;;0.60;;
35026;SDS011;60696;51.426;6.934;2023-01-08T06:52:23;2.45;;;0.80;;
35026;SDS011;60696;51.426;6.934;2023-01-08T06:54:49;2.58;;;1.10;;
35026;SDS011;60696;51.426;6.934;2023-01-08T06:57:14;2.45;;;1.30;;
35026;SDS011;60696;51.426;6.934;2023-01-08T06:59:40;4.30;;;1.17;;
35026;SDS011;60696;51.426;6.934;2023-01-08T07:02:09;2.25;;;0.55;;
35026;SDS011;60696;51.426;6.934;2023-01-08T07:04:37;2.38;;;0.60;;
35026;SDS011;60696;51.426;6.934;2023-01-08T07:07:03;1.58;;;0.52;;
35026;SDS011;60696;51.426;6.934;2023-01-08T07:09:28;2.50;;;0.30;;
35026;SDS011;60696;51.426;6.934;2023-01-08T07:11:54;2.15;;;0.40;;
35026;SDS011;60696;51.426;6.934;2023-01-08T07:14:19;2.00;;;0.50;;
35026;SDS011;60696;51.426;6.934;2023-01-08T07:16:45;1.13;;;0.40;;
35026;SDS011;60696;51.426;6.934;2023-01-08T07:19:11;1.17;;;0.40;;
35026;SDS011;60696;51.426;6.934;2023-01-08T07:21:37;3.65;;;0.47;;
35026;SDS011;60696;51.426;6.934;2023-01-08T07:24:03;2.85;;;0.50;;
35026;SDS011;60696;51.426;6.934;2023-01-08T07:26:30;3.95;;;0.43;;
35026;SDS011;60696;51.426;6.934;2023-01-08T07:28:55;4.10;;;0.52;;
35026;SDS011;60696;51.426;6.934;2023-01-08T07:31:21;1.30;;;0.47;;
35026;SDS011;60696;51.426;6.934;2023-01-08T07:33:46;4.30;;;0.70;;
35026;SDS011;60696;51.426;6.934;2023-01-08T07:36:12;3.78;;;0.60;;
35026;SDS011;60696;51.426;6.934;2023-01-08T07:38:38;2.80;;;0.30;;
35026;SDS011;60696;51.426;6.934;2023-01-08T07:41:03;6.55;;;0.40;;
35026;SDS011;60696;51.426;6.934;2023-01-08T07:43:29;1.48;;;0.45;;
35026;SDS011;60696;51.426;6.934;2023-01-08T07:45:54;3.30;;;0.40;;
35026;SDS011;60696;51.426;6.934;2023-01-08T07:48:21;1.27;;;0.40;;
35026;SDS011;60696;51.426;6.934;2023-01-08T07:50:46;1.13;;;0.40;;
35026;SDS011;60696;51.426;6.934;2023-01-08T07:53:12;1.63;;;0.50;;
35026;SDS011;60696;51.426;6.934;2023-01-08T07:55:41;1.83;;;0.30;;
35026;SDS011;60696;51.426;6.934;2023-01-08T07:58:10;3.22;;;0.50;;
35026;SDS011;60696;51.426;6.934;2023-01-08T08:00:37;1.95;;;0.38;;
35026;SDS011;60696;51.426;6.934;2023-01-08T08:03:04;2.70;;;0.50;;
35026;SDS011;60696;51.426;6.934;2023-01-08T08:05:31;1.90;;;0.40;;
35026;SDS011;60696;51.426;6.934;2023-01-08T08:07:57;2.25;;;0.30;;
35026;SDS011;60696;51.426;6.934;2023-01-08T08:10:23;2.00;;;0.35;;
35026;SDS011;60696;51.426;6.934;2023-01-08T08:12:48;0.75;;;0.32;;
35026;SDS011;60696;51.426;6.934;2023-01-08T08:15:14;1.13;;;0.30;;
35026;SDS011;60696;51.426;6.934;2023-01-08T08:17:43;2.08;;;0.50;;
35026;SDS011;60696;51.426;6.934;2023-01-08T08:20:10;2.58;;;0.38;;
35026;SDS011;60696;51.426;6.934;2023-01-08T08:22:35;1.48;;;0.25;;
35026;SDS011;60696;51.426;6.934;2023-01-08T08:25:01;4.95;;;0.57;;
35026;SDS011;60696;51.426;6.934;2023-01-08T08:27:26;4.95;;;0.40;;
35026;SDS011;60696;51.426;6.934;2023-01-08T08:29:52;1.83;;;0.40;;
35026;SDS011;60696;51.426;6.934;2023-01-08T08:32:18;7.70;;;0.82;;
35026;SDS011;60696;51.426;6.934;2023-01-08T08:34:43;3.35;;;0.32;;
35026;SDS011;60696;51.426;6.934;2023-01-08T08:37:09;1.98;;;0.40;;
35026;SDS011;60696;51.426;6.934;2023-01-08T08:39:35;3.45;;;0.55;;
35026;SDS011;60696;51.426;6.934;2023-01-08T08:42:00;2.05;;;0.73;;
35026;SDS011;60696;51.426;6.934;2023-01-08T08:44:26;3.25;;;0.50;;
35026;SDS011;60696;51.426;6.934;2023-01-08T08:46:52;1.50;;;0.50;;
35026;SDS011;60696;51.426;6.934;2023-01-08T08:49:17;3.33;;;0.65;;
35026;SDS011;60696;51.426;6.934;2023-01-08T08:51:43;2.85;;;0.35;;
35026;SDS011;60696;51.426;6.934;2023-01-08T08:54:09;2.75;;;0.50;;
35026;SDS011;60696;51.426;6.934;2023-01-08T08:56:35;5.13;;;0.73;;
35026;SDS011;60696;51.426;6.934;2023-01-08T08:59:01;1.33;;;0.38;;
35026;SDS011;60696;51.426;6.934;2023-01-08T09:01:26;3.67;;;0.50;;
35026;SDS011;60696;51.426;6.934;2023-01-08T09:03:53;2.42;;;0.63;;
35026;SDS011;60696;51.426;6.934;2023-01-08T09:06:18;7.32;;;0.60;;
35026;SDS011;60696;51.426;6.934;2023-01-08T09:08:44;1.75;;;0.38;;
35026;SDS011;60696;51.426;6.934;2023-01-08T09:11:10;3.25;;;0.63;;
35026;SDS011;60696;51.426;6.934;2023-01-08T09:13:36;3.05;;;0.40;;
35026;SDS011;60696;51.426;6.934;2023-01-08T09:16:02;3.83;;;0.63;;
35026;SDS011;60696;51.426;6.934;2023-01-08T09:18:28;2.17;;;0.50;;
35026;SDS011;60696;51.426;6.934;2023-01-08T09:20:54;2.53;;;0.60;;
35026;SDS011;60696;51.426;6.934;2023-01-08T09:23:19;7.80;;;0.70;;
35026;SDS011;60696;51.426;6.934;2023-01-08T09:25:45;4.97;;;0.57;;
35026;SDS011;60696;51.426;6.934;2023-01-08T09:28:11;5.57;;;0.75;;
35026;SDS011;60696;51.426;6.934;2023-01-08T09:30:37;9.48;;;1.20;;
35026;SDS011;60696;51.426;6.934;2023-01-08T09:33:04;6.35;;;1.17;;
35026;SDS011;60696;51.426;6.934;2023-01-08T09:35:30;4.18;;;0.60;;
35026;SDS011;60696;51.426;6.934;2023-01-08T09:37:57;6.95;;;0.70;;
35026;SDS011;60696;51.426;6.934;2023-01-08T09:43:16;5.95;;;0.70;;
35026;SDS011;60696;51.426;6.934;2023-01-08T09:45:44;3.60;;;0.60;;
35026;SDS011;60696;51.426;6.934;2023-01-08T09:50:41;9.23;;;0.85;;
35026;SDS011;60696;51.426;6.934;2023-01-08T09:53:14;3.42;;;0.63;;
35026;SDS011;60696;51.426;6.934;2023-01-08T09:55:41;3.85;;;0.50;;
35026;SDS011;60696;51.426;6.934;2023-01-08T09:58:32;4.75;;;0.93;;
35026;SDS011;60696;51.426;6.934;2023-01-08T10:00:53;3.55;;;0.88;;
35026;SDS011;60696;51.426;6.934;2023-01-08T10:03:20;4.03;;;0.63;;
35026;SDS011;60696;51.426;6.934;2023-01-08T10:05:53;4.90;;;1.08;;
35026;SDS011;60696;51.426;6.934;2023-01-08T10:08:18;6.05;;;0.88;;
35026;SDS011;60696;51.426;6.934;2023-01-08T10:10:44;3.58;;;0.95;;
35026;SDS011;60696;51.426;6.934;2023-01-08T10:13:10;8.27;;;0.80;;
35026;SDS011;60696;51.426;6.934;2023-01-08T10:15:38;3.35;;;0.60;;
35026;SDS011;60696;51.426;6.934;2023-01-08T10:18:06;4.13;;;0.77;;
35026;SDS011;60696;51.426;6.934;2023-01-08T10:20:36;5.63;;;1.05;;
35026;SDS011;60696;51.426;6.934;2023-01-08T10:23:14;3.65;;;0.80;;
35026;SDS011;60696;51.426;6.934;2023-01-08T10:28:18;2.97;;;0.50;;
35026;SDS011;60696;51.426;6.934;2023-01-08T10:33:49;2.63;;;0.65;;
35026;SDS011;60696;51.426;6.934;2023-01-08T10:36:16;5.20;;;0.73;;
35026;SDS011;60696;51.426;6.934;2023-01-08T10:41:21;4.43;;;0.68;;
35026;SDS011;60696;51.426;6.934;2023-01-08T10:43:59;2.15;;;0.82;;
35026;SDS011;60696;51.426;6.934;2023-01-08T10:48:56;1.02;;;0.50;;
35026;SDS011;60696;51.426;6.934;2023-01-08T10:51:24;3.67;;;0.60;;
35026;SDS011;60696;51.426;6.934;2023-01-08T10:53:59;3.10;;;0.65;;
35026;SDS011;60696;51.426;6.934;2023-01-08T10:56:40;2.50;;;0.70;;
35026;SDS011;60696;51.426;6.934;2023-01-08T10:59:18;4.35;;;1.08;;
35026;SDS011;60696;51.426;6.934;2023-01-08T11:01:47;3.47;;;0.60;;
35026;SDS011;60696;51.426;6.934;2023-01-08T11:04:36;5.73;;;0.70;;
35026;SDS011;60696;51.426;6.934;2023-01-08T11:07:01;5.90;;;0.70;;
35026;SDS011;60696;51.426;6.934;2023-01-08T11:09:38;4.30;;;0.90;;
35026;SDS011;60696;51.426;6.934;2023-01-08T11:15:04;1.55;;;0.57;;
35026;SDS011;60696;51.426;6.934;2023-01-08T11:17:51;2.58;;;0.60;;
35026;SDS011;60696;51.426;6.934;2023-01-08T11:20:21;4.10;;;0.77;;
35026;SDS011;60696;51.426;6.934;2023-01-08T11:22:51;7.57;;;0.70;;
35026;SDS011;60696;51.426;6.934;2023-01-08T11:25:37;4.63;;;0.90;;
35026;SDS011;60696;51.426;6.934;2023-01-08T11:28:04;2.45;;;0.88;;
35026;SDS011;60696;51.426;6.934;2023-01-08T11:30:33;2.35;;;0.50;;
35026;SDS011;60696;51.426;6.934;2023-01-08T11:33:08;1.88;;;0.60;;
35026;SDS011;60696;51.426;6.934;2023-01-08T11:35:43;2.88;;;1.00;;
35026;SDS011;60696;51.426;6.934;2023-01-08T11:38:13;2.85;;;0.80;;
35026;SDS011;60696;51.426;6.934;2023-01-08T11:46:02;7.75;;;2.58;;
35026;SDS011;60696;51.426;6.934;2023-01-08T12:16:47;1.88;;;0.52;;
35026;SDS011;60696;51.426;6.934;2023-01-08T12:22:13;1.13;;;0.25;;
35026;SDS011;60696;51.426;6.934;2023-01-08T12:25:09;1.38;;;0.30;;
35026;SDS011;60696;51.426;6.934;2023-01-08T12:33:34;0.98;;;0.20;;
35026;SDS011;60696;51.426;6.934;2023-01-08T12:36:07;3.60;;;0.32;;
35026;SDS011;60696;51.426;6.934;2023-01-08T12:38:35;1.88;;;0.28;;
35026;SDS011;60696;51.426;6.934;2023-01-08T12:41:11;0.10;;;0.10;;
35026;SDS011;60696;51.426;6.934;2023-01-08T12:43:51;0.22;;;0.13;;
35026;SDS011;60696;51.426;6.934;2023-01-08T12:46:18;0.32;;;0.20;;
35026;SDS011;60696;51.426;6.934;2023-01-08T12:48:45;1.75;;;0.10;;
35026;SDS011;60696;51.426;6.934;2023-01-08T12:54:30;1.10;;;0.30;;
35026;SDS011;60696;51.426;6.934;2023-01-08T12:57:04;1.63;;;0.40;;
35026;SDS011;60696;51.426;6.934;2023-01-08T13:03:00;0.20;;;0.20;;
35026;SDS011;60696;51.426;6.934;2023-01-08T13:05:37;1.88;;;0.15;;
35026;SDS011;60696;51.426;6.934;2023-01-08T13:08:04;0.93;;;0.35;;
35026;SDS011;60696;51.426;6.934;2023-01-08T13:12:59;0.63;;;0.30;;
35026;SDS011;60696;51.426;6.934;2023-01-08T13:15:27;0.45;;;0.30;;
35026;SDS011;60696;51.426;6.934;2023-01-08T13:18:14;0.40;;;0.30;;
35026;SDS011;60696;51.426;6.934;2023-01-08T13:20:42;3.22;;;0.55;;
35026;SDS011;60696;51.426;6.934;2023-01-08T13:23:25;1.30;;;0.30;;
35026;SDS011;60696;51.426;6.934;2023-01-08T13:25:56;4.13;;;0.50;;
35026;SDS011;60696;51.426;6.934;2023-01-08T13:30:49;0.75;;;0.43;;
35026;SDS011;60696;51.426;6.934;2023-01-08T13:38:36;1.33;;;0.50;;
35026;SDS011;60696;51.426;6.934;2023-01-08T13:41:02;0.82;;;0.40;;
35026;SDS011;60696;51.426;6.934;2023-01-08T13:43:29;0.20;;;0.20;;
35026;SDS011;60696;51.426;6.934;2023-01-08T13:48:26;0.98;;;0.38;;
35026;SDS011;60696;51.426;6.934;2023-01-08T13:50:53;0.57;;;0.20;;
35026;SDS011;60696;51.426;6.934;2023-01-08T13:53:20;2.65;;;0.45;;
35026;SDS011;60696;51.426;6.934;2023-01-08T13:55:59;1.13;;;0.40;;
35026;SDS011;60696;51.426;6.934;2023-01-08T13:58:50;3.55;;;0.30;;
35026;SDS011;60696;51.426;6.934;2023-01-08T14:01:17;2.13;;;0.40;;
35026;SDS011;60696;51.426;6.934;2023-01-08T14:03:44;2.58;;;0.50;;
35026;SDS011;60696;51.426;6.934;2023-01-08T14:06:18;1.25;;;0.40;;
35026;SDS011;60696;51.426;6.934;2023-01-08T14:11:31;2.47;;;0.30;;
35026;SDS011;60696;51.426;6.934;2023-01-08T14:14:17;1.92;;;0.30;;
35026;SDS011;60696;51.426;6.934;2023-01-08T14:16:48;4.05;;;0.60;;
35026;SDS011;60696;51.426;6.934;2023-01-08T14:19:20;3.50;;;0.50;;
35026;SDS011;60696;51.426;6.934;2023-01-08T14:21:51;1.58;;;0.30;;
35026;SDS011;60696;51.426;6.934;2023-01-08T14:24:19;3.42;;;0.30;;
35026;SDS011;60696;51.426;6.934;2023-01-08T14:26:51;0.38;;;0.20;;
35026;SDS011;60696;51.426;6.934;2023-01-08T14:29:21;1.35;;;0.30;;
35026;SDS011;60696;51.426;6.934;2023-01-08T14:31:58;1.98;;;0.50;;
35026;SDS011;60696;51.426;6.934;2023-01-08T14:34:25;1.65;;;0.20;;
35026;SDS011;60696;51.426;6.934;2023-01-08T14:36:54;0.93;;;0.50;;
35026;SDS011;60696;51.426;6.934;2023-01-08T14:41:56;1.15;;;0.40;;
35026;SDS011;60696;51.426;6.934;2023-01-08T14:44:52;1.13;;;0.30;;
35026;SDS011;60696;51.426;6.934;2023-01-08T14:47:19;1.05;;;0.30;;
35026;SDS011;60696;51.426;6.934;2023-01-08T14:49:48;0.50;;;0.22;;
35026;SDS011;60696;51.426;6.934;2023-01-08T14:54:44;0.60;;;0.30;;
35026;SDS011;60696;51.426;6.934;2023-01-08T14:57:13;0.50;;;0.25;;
35026;SDS011;60696;51.426;6.934;2023-01-08T14:59:39;2.20;;;0.52;;
35026;SDS011;60696;51.426;6.934;2023-01-08T15:02:05;1.83;;;0.52;;
35026;SDS011;60696;51.426;6.934;2023-01-08T15:04:45;2.08;;;0.20;;
35026;SDS011;60696;51.426;6.934;2023-01-08T15:07:21;1.67;;;0.32;;
35026;SDS011;60696;51.426;6.934;2023-01-08T15:09:54;0.60;;;0.30;;
35026;SDS011;60696;51.426;6.934;2023-01-08T15:12:21;3.28;;;0.47;;
35026;SDS011;60696;51.426;6.934;2023-01-08T15:14:49;0.38;;;0.20;;
35026;SDS011;60696;51.426;6.934;2023-01-08T15:17:15;0.80;;;0.50;;
35026;SDS011;60696;51.426;6.934;2023-01-08T15:19:44;0.57;;;0.30;;
35026;SDS011;60696;51.426;6.934;2023-01-08T15:22:17;3.40;;;0.50;;
35026;SDS011;60696;51.426;6.934;2023-01-08T15:24:51;0.30;;;0.30;;
35026;SDS011;60696;51.426;6.934;2023-01-08T15:27:19;1.25;;;0.45;;
35026;SDS011;60696;51.426;6.934;2023-01-08T15:29:49;0.65;;;0.38;;
35026;SDS011;60696;51.426;6.934;2023-01-08T15:34:46;1.20;;;0.45;;
35026;SDS011;60696;51.426;6.934;2023-01-08T15:37:12;1.52;;;0.55;;
35026;SDS011;60696;51.426;6.934;2023-01-08T15:39:39;0.70;;;0.30;;
35026;SDS011;60696;51.426;6.934;2023-01-08T15:42:20;0.38;;;0.35;;
35026;SDS011;60696;51.426;6.934;2023-01-08T15:45:14;1.52;;;0.43;;
35026;SDS011;60696;51.426;6.934;2023-01-08T15:47:45;0.65;;;0.20;;
35026;SDS011;60696;51.426;6.934;2023-01-08T15:50:10;3.35;;;0.50;;
35026;SDS011;60696;51.426;6.934;2023-01-08T15:52:37;1.08;;;0.40;;
35026;SDS011;60696;51.426;6.934;2023-01-08T15:55:05;0.30;;;0.20;;
35026;SDS011;60696;51.426;6.934;2023-01-08T15:57:31;1.15;;;0.30;;
35026;SDS011;60696;51.426;6.934;2023-01-08T15:59:57;3.30;;;0.30;;
35026;SDS011;60696;51.426;6.934;2023-01-08T16:02:23;3.20;;;0.40;;
35026;SDS011;60696;51.426;6.934;2023-01-08T16:04:52;2.63;;;0.45;;
35026;SDS011;60696;51.426;6.934;2023-01-08T16:07:19;0.60;;;0.30;;
35026;SDS011;60696;51.426;6.934;2023-01-08T16:09:45;1.45;;;0.50;;
35026;SDS011;60696;51.426;6.934;2023-01-08T16:12:11;0.35;;;0.30;;
35026;SDS011;60696;51.426;6.934;2023-01-08T16:14:37;0.93;;;0.30;;
35026;SDS011;60696;51.426;6.934;2023-01-08T16:17:03;0.63;;;0.35;;
35026;SDS011;60696;51.426;6.934;2023-01-08T16:19:29;0.82;;;0.30;;
35026;SDS011;60696;51.426;6.934;2023-01-08T16:21:56;0.40;;;0.35;;
35026;SDS011;60696;51.426;6.934;2023-01-08T16:24:21;1.80;;;0.40;;
35026;SDS011;60696;51.426;6.934;2023-01-08T16:26:47;1.10;;;0.40;;
35026;SDS011;60696;51.426;6.934;2023-01-08T16:29:13;0.90;;;0.22;;
35026;SDS011;60696;51.426;6.934;2023-01-08T16:31:42;0.68;;;0.30;;
35026;SDS011;60696;51.426;6.934;2023-01-08T16:34:09;1.38;;;0.30;;
35026;SDS011;60696;51.426;6.934;2023-01-08T16:36:35;1.38;;;0.40;;
35026;SDS011;60696;51.426;6.934;2023-01-08T16:39:00;0.80;;;0.50;;
35026;SDS011;60696;51.426;6.934;2023-01-08T16:41:26;0.50;;;0.40;;
35026;SDS011;60696;51.426;6.934;2023-01-08T16:43:52;2.78;;;0.50;;
35026;SDS011;60696;51.426;6.934;2023-01-08T16:46:17;1.05;;;0.50;;